createdAt,value
2018-11-05T00:01:37.475Z,60521.86
2018-11-05T00:04:05.676Z,60519.83
2018-11-05T00:06:33.863Z,60521.86
2018-11-05T00:09:02.089Z,60539.14
2018-11-05T00:11:30.288Z,60516.78
2018-11-05T00:13:58.495Z,60498.49
2018-11-05T00:16:26.670Z,60516.78
2018-11-05T00:18:54.859Z,60515.77
2018-11-05T00:21:23.043Z,60497.47
2018-11-05T00:23:51.258Z,60520.85
2018-11-05T00:26:19.435Z,60535.07
2018-11-05T00:28:47.649Z,60531.01
2018-11-05T00:31:15.861Z,60516.78
2018-11-05T00:33:44.044Z,60529.99
2018-11-05T00:36:12.220Z,60504.59
2018-11-05T00:38:40.399Z,60538.12
2018-11-05T00:41:08.579Z,60520.85
2018-11-05T00:43:36.776Z,60504.59
2018-11-05T00:46:05.105Z,60540.15
2018-11-05T00:48:33.262Z,60503.57
2018-11-05T00:51:01.442Z,60516.78
2018-11-05T00:53:29.643Z,60520.85
2018-11-05T00:55:57.891Z,60508.65
2018-11-05T00:58:26.071Z,60514.75
2018-11-05T01:00:54.271Z,60508.65
2018-11-05T01:03:22.453Z,60510.68
2018-11-05T01:05:50.663Z,60513.73
2018-11-05T01:08:18.835Z,60526.95
2018-11-05T01:10:47.023Z,60522.88
2018-11-05T01:13:15.189Z,60534.06
2018-11-05T01:15:43.363Z,60514.75
2018-11-05T01:18:11.541Z,60525.93
2018-11-05T01:20:39.740Z,60507.64
2018-11-05T01:23:07.924Z,60486.29
2018-11-05T01:25:36.284Z,60512.72
2018-11-05T01:28:04.568Z,60489.34
2018-11-05T01:30:32.791Z,60529.99
2018-11-05T01:33:00.966Z,60533.04
2018-11-05T01:35:29.151Z,60548.29
2018-11-05T01:37:57.328Z,60523.89
2018-11-05T01:40:25.503Z,60514.75
2018-11-05T01:42:53.671Z,60514.75
2018-11-05T01:45:21.823Z,60501.54
2018-11-05T01:47:49.988Z,60519.83
2018-11-05T01:50:18.184Z,60527.96
2018-11-05T01:52:46.375Z,60512.72
2018-11-05T01:55:14.556Z,60523.89
2018-11-05T01:57:43.130Z,60508.65
2018-11-05T02:00:14.776Z,60520.85
2018-11-05T02:02:43.255Z,60497.47
2018-11-05T02:05:11.840Z,60507.64
2018-11-05T02:07:40.734Z,60516.78
2018-11-05T02:10:11.415Z,60520.85
2018-11-05T02:12:39.555Z,60536.09
2018-11-05T02:15:08.223Z,60532.02
2018-11-05T02:17:36.431Z,60536.09
2018-11-05T02:20:05.667Z,60507.64
2018-11-05T02:22:33.839Z,60519.83
2018-11-05T02:25:02.028Z,60514.75
2018-11-05T02:27:30.224Z,60502.55
2018-11-05T02:29:58.415Z,60516.78
2018-11-05T02:32:26.669Z,60520.85
2018-11-05T02:34:54.855Z,60502.55
2018-11-05T02:37:23.160Z,60498.49
2018-11-05T02:39:51.339Z,60539.14
2018-11-05T02:42:19.516Z,60513.73
2018-11-05T02:44:47.688Z,60541.17
2018-11-05T02:47:15.867Z,60550.32
2018-11-05T02:49:44.043Z,60514.75
2018-11-05T02:52:12.239Z,60560.48
2018-11-05T02:54:40.444Z,60503.57
2018-11-05T02:57:08.619Z,60516.78
2018-11-05T02:59:36.804Z,60533.04
2018-11-05T03:02:05.146Z,60516.78
2018-11-05T03:04:33.319Z,60494.43
2018-11-05T03:07:01.657Z,60512.72
2018-11-05T03:09:29.815Z,60505.60
2018-11-05T03:11:57.996Z,60487.31
2018-11-05T03:14:26.158Z,60497.47
2018-11-05T03:16:54.322Z,60499.50
2018-11-05T03:19:22.523Z,60501.54
2018-11-05T03:21:50.719Z,60525.93
2018-11-05T03:24:18.959Z,60501.54
2018-11-05T03:26:47.072Z,60532.02
2018-11-05T03:29:15.252Z,60520.85
2018-11-05T03:31:44.042Z,60505.60
2018-11-05T03:34:12.248Z,60507.64
2018-11-05T03:36:40.419Z,60535.07
2018-11-05T03:39:10.196Z,60505.60
2018-11-05T03:41:38.640Z,60491.38
2018-11-05T03:44:07.311Z,60516.78
2018-11-05T03:46:35.575Z,60511.70
2018-11-05T03:49:03.784Z,60529.99
2018-11-05T03:51:31.952Z,60489.34
2018-11-05T03:54:00.148Z,60503.57
2018-11-05T03:56:28.367Z,60536.09
2018-11-05T03:58:56.504Z,60496.46
2018-11-05T04:01:24.696Z,60487.31
2018-11-05T04:03:53.004Z,60518.82
2018-11-05T04:06:21.225Z,60510.68
2018-11-05T04:08:49.400Z,60510.68
2018-11-05T04:11:17.588Z,60525.93
2018-11-05T04:13:45.767Z,60500.52
2018-11-05T04:16:14.024Z,60525.93
2018-11-05T04:18:42.143Z,60488.33
2018-11-05T04:21:10.336Z,60483.25
2018-11-05T04:23:38.659Z,60501.54
2018-11-05T04:26:06.840Z,60477.15
2018-11-05T04:28:35.010Z,60539.14
2018-11-05T04:31:03.217Z,60505.60
2018-11-05T04:33:31.379Z,60504.59
2018-11-05T04:35:59.542Z,60518.82
2018-11-05T04:38:27.715Z,60525.93
2018-11-05T04:40:55.910Z,60494.43
2018-11-05T04:43:24.125Z,60529.99
2018-11-05T04:45:52.299Z,60485.28
2018-11-05T04:48:20.515Z,60489.34
2018-11-05T04:50:48.722Z,60500.52
2018-11-05T04:53:16.923Z,60495.44
2018-11-05T04:55:45.100Z,60503.57
2018-11-05T04:58:13.317Z,60528.98
2018-11-05T05:00:41.459Z,60514.75
2018-11-05T05:03:09.660Z,60490.36
2018-11-05T05:05:37.835Z,60512.72
2018-11-05T05:08:06.398Z,60505.60
2018-11-05T05:10:34.590Z,60483.25
2018-11-05T05:13:02.778Z,60474.10
2018-11-05T05:15:30.975Z,60499.50
2018-11-05T05:17:59.166Z,60510.68
2018-11-05T05:20:27.331Z,60507.64
2018-11-05T05:22:55.720Z,60500.52
2018-11-05T05:25:23.687Z,60512.72
2018-11-05T05:27:51.894Z,60493.41
2018-11-05T05:30:20.218Z,60507.64
2018-11-05T05:32:49.141Z,60504.59
2018-11-05T05:35:18.210Z,60508.65
2018-11-05T05:37:46.362Z,60484.26
2018-11-05T05:40:14.519Z,60489.34
2018-11-05T05:42:42.711Z,60482.23
2018-11-05T05:45:11.839Z,60513.73
2018-11-05T05:47:40.307Z,60520.85
2018-11-05T05:50:12.779Z,60482.23
2018-11-05T05:52:41.698Z,60514.75
2018-11-05T05:55:10.076Z,60498.49
2018-11-05T05:57:38.264Z,60510.68
2018-11-05T06:00:09.036Z,60484.26
2018-11-05T06:02:37.399Z,60549.30
2018-11-05T06:05:06.591Z,60500.52
2018-11-05T06:07:34.751Z,60498.49
2018-11-05T06:10:02.952Z,60510.68
2018-11-05T06:12:31.127Z,60517.80
2018-11-05T06:14:59.323Z,60522.88
2018-11-05T06:17:27.492Z,60507.64
2018-11-05T06:19:55.659Z,60500.52
2018-11-05T06:22:23.838Z,60490.36
2018-11-05T06:24:52.135Z,60520.85
2018-11-05T06:27:20.357Z,60498.49
2018-11-05T06:29:48.602Z,60460.89
2018-11-05T06:32:16.771Z,60508.65
2018-11-05T06:34:44.924Z,60502.55
2018-11-05T06:37:13.082Z,60487.31
2018-11-05T06:39:41.251Z,60493.41
2018-11-05T06:42:09.419Z,60505.60
2018-11-05T06:44:37.607Z,60495.44
2018-11-05T06:47:05.751Z,60501.54
2018-11-05T06:49:33.904Z,60497.47
2018-11-05T06:52:02.073Z,60504.59
2018-11-05T06:54:30.237Z,60498.49
2018-11-05T06:56:58.391Z,60459.87
2018-11-05T06:59:26.556Z,60487.31
2018-11-05T07:01:54.752Z,60501.54
2018-11-05T07:04:22.952Z,60497.47
2018-11-05T07:06:51.104Z,60495.44
2018-11-05T07:09:19.292Z,60517.80
2018-11-05T07:11:47.468Z,60498.49
2018-11-05T07:14:15.651Z,60492.39
2018-11-05T07:16:43.868Z,60510.68
2018-11-05T07:19:12.242Z,60503.57
2018-11-05T07:21:40.183Z,60502.55
2018-11-05T07:24:08.368Z,60496.46
2018-11-05T07:26:36.599Z,60489.34
2018-11-05T07:29:04.822Z,60499.50
2018-11-05T07:31:32.980Z,60498.49
2018-11-05T07:34:01.463Z,60507.64
2018-11-05T07:36:29.504Z,60478.16
2018-11-05T07:38:57.668Z,60503.57
2018-11-05T07:41:25.831Z,60499.50
2018-11-05T07:43:54.013Z,60497.47
2018-11-05T07:46:22.176Z,60483.25
2018-11-05T07:48:50.339Z,60493.41
2018-11-05T07:51:18.506Z,60494.43
2018-11-05T07:53:46.695Z,60510.68
2018-11-05T07:56:14.881Z,60474.10
2018-11-05T07:58:43.027Z,60482.23
2018-11-05T08:01:11.192Z,60487.31
2018-11-05T08:03:39.367Z,60458.86
2018-11-05T08:06:07.631Z,60494.43
2018-11-05T08:08:35.794Z,60487.31
2018-11-05T08:11:03.987Z,60479.18
2018-11-05T08:13:32.154Z,60492.39
2018-11-05T08:16:00.324Z,60489.34
2018-11-05T08:18:28.524Z,60483.25
2018-11-05T08:20:56.675Z,60489.34
2018-11-05T08:23:24.847Z,60499.50
2018-11-05T08:25:52.999Z,60465.97
2018-11-05T08:28:21.163Z,60476.13
2018-11-05T08:30:49.332Z,60465.97
2018-11-05T08:33:17.492Z,60483.25
2018-11-05T08:35:45.708Z,60480.20
2018-11-05T08:38:13.859Z,60473.09
2018-11-05T08:40:42.032Z,60483.25
2018-11-05T08:43:10.191Z,60487.31
2018-11-05T08:45:38.359Z,60478.16
2018-11-05T08:48:06.538Z,60491.38
2018-11-05T08:50:34.744Z,60473.09
2018-11-05T08:53:02.884Z,60501.54
2018-11-05T08:55:31.073Z,60464.96
2018-11-05T08:57:59.227Z,60511.70
2018-11-05T09:00:32.741Z,60502.55
2018-11-05T09:03:00.903Z,60464.96
2018-11-05T09:05:29.079Z,60482.23
2018-11-05T09:07:57.303Z,60463.94
2018-11-05T09:10:25.663Z,60481.21
2018-11-05T09:12:53.694Z,60464.96
2018-11-05T09:15:22.625Z,60457.84
2018-11-05T09:17:50.995Z,60480.20
2018-11-05T09:20:19.791Z,60459.87
2018-11-05T09:22:48.758Z,60460.89
2018-11-05T09:25:17.353Z,60470.04
2018-11-05T09:27:45.606Z,60461.91
2018-11-05T09:30:15.964Z,60509.67
2018-11-05T09:32:44.944Z,60469.02
2018-11-05T09:35:13.193Z,60466.99
2018-11-05T09:37:41.368Z,60455.81
2018-11-05T09:40:11.935Z,60471.05
2018-11-05T09:42:40.963Z,60457.84
2018-11-05T09:45:12.071Z,60466.99
2018-11-05T09:47:40.312Z,60482.23
2018-11-05T09:50:09.291Z,60473.09
2018-11-05T09:52:37.606Z,60445.65
2018-11-05T09:55:06.111Z,60490.36
2018-11-05T09:57:34.302Z,60469.02
2018-11-05T10:00:02.874Z,60451.75
2018-11-05T10:02:36.535Z,60464.96
2018-11-05T10:05:05.365Z,60479.18
2018-11-05T10:07:33.348Z,60471.05
2018-11-05T10:10:01.517Z,60460.89
2018-11-05T10:12:29.685Z,60479.18
2018-11-05T10:14:57.884Z,60462.92
2018-11-05T10:17:26.056Z,60472.07
2018-11-05T10:19:54.206Z,60471.05
2018-11-05T10:22:22.376Z,60461.91
2018-11-05T10:24:50.732Z,60453.78
2018-11-05T10:27:18.732Z,60482.23
2018-11-05T10:29:46.895Z,60453.78
2018-11-05T10:32:15.052Z,60462.92
2018-11-05T10:34:43.209Z,60471.05
2018-11-05T10:37:11.366Z,60453.78
2018-11-05T10:39:39.546Z,60461.91
2018-11-05T10:42:07.724Z,60470.04
2018-11-05T10:44:36.432Z,60444.63
2018-11-05T10:47:04.599Z,60453.78
2018-11-05T10:49:32.776Z,60469.02
2018-11-05T10:52:01.101Z,60456.82
2018-11-05T10:54:29.169Z,60448.70
2018-11-05T10:56:57.325Z,60436.50
2018-11-05T10:59:25.484Z,60465.97
2018-11-05T11:01:59.015Z,60453.78
2018-11-05T11:04:32.145Z,60449.71
2018-11-05T11:07:00.756Z,60471.05
2018-11-05T11:09:29.046Z,60465.97
2018-11-05T11:11:57.802Z,60430.40
2018-11-05T11:14:25.987Z,60440.57
2018-11-05T11:16:54.155Z,60448.70
2018-11-05T11:19:22.340Z,60442.60
2018-11-05T11:21:50.568Z,60447.68
2018-11-05T11:24:18.887Z,60462.92
2018-11-05T11:26:47.095Z,60418.21
2018-11-05T11:29:15.451Z,60430.40
2018-11-05T11:31:43.616Z,60466.99
2018-11-05T11:34:11.782Z,60469.02
2018-11-05T11:36:40.049Z,60444.63
2018-11-05T11:39:10.208Z,60453.78
2018-11-05T11:41:38.402Z,60430.40
2018-11-05T11:44:06.799Z,60435.48
2018-11-05T11:46:35.331Z,60465.97
2018-11-05T11:49:03.528Z,60428.37
2018-11-05T11:51:31.699Z,60438.53
2018-11-05T11:53:59.896Z,60439.55
2018-11-05T11:56:28.283Z,60442.60
2018-11-05T11:58:56.488Z,60436.50
2018-11-05T12:01:24.706Z,60421.26
2018-11-05T12:03:52.861Z,60418.21
2018-11-05T12:06:21.140Z,60419.23
2018-11-05T12:08:49.516Z,60416.18
2018-11-05T12:11:17.671Z,60429.39
2018-11-05T12:13:45.860Z,60410.08
2018-11-05T12:16:14.003Z,60414.14
2018-11-05T12:18:42.175Z,60425.32
2018-11-05T12:21:10.352Z,60416.18
2018-11-05T12:40:41.501Z,60434.47
2018-11-05T12:43:15.018Z,60416.18
2018-11-05T12:45:54.120Z,60385.69
2018-11-05T12:48:22.294Z,60432.44
2018-11-05T12:50:55.879Z,60421.26
2018-11-05T12:53:29.646Z,60415.16
2018-11-05T12:55:57.836Z,60403.98
2018-11-05T12:58:31.747Z,60410.08
2018-11-05T13:00:59.962Z,60417.20
2018-11-05T13:03:38.806Z,60415.16
2018-11-05T13:06:17.983Z,60414.14
2018-11-05T13:14:04.747Z,60415.16
2018-11-05T13:19:22.793Z,60405.00
2018-11-05T13:22:02.020Z,60421.26
2018-11-05T13:24:35.530Z,60430.40
2018-11-05T13:27:03.723Z,60445.65
2018-11-05T13:29:31.902Z,60447.68
2018-11-05T13:32:05.513Z,60434.47
2018-11-05T13:37:18.728Z,60426.34
2018-11-05T13:39:46.582Z,60433.45
2018-11-05T13:47:27.685Z,60425.32
2018-11-05T13:50:01.104Z,60420.24
2018-11-05T13:52:34.491Z,60453.78
2018-11-05T13:55:13.662Z,60426.34
2018-11-05T13:57:47.182Z,60446.66
2018-11-05T14:00:26.613Z,60418.21
2018-11-05T14:05:34.087Z,60441.58
2018-11-05T14:10:35.732Z,60459.87
2018-11-05T14:13:14.765Z,60436.50
2018-11-05T14:15:53.983Z,60437.52
2018-11-05T14:18:38.851Z,60421.26
2018-11-05T14:29:33.410Z,60440.57
2018-11-05T14:32:17.999Z,60421.26
2018-11-05T14:34:57.447Z,60432.44
2018-11-05T14:37:25.619Z,60440.57
2018-11-05T14:39:53.804Z,60454.79
2018-11-05T14:42:27.636Z,60423.29
2018-11-05T14:45:01.027Z,60425.32
2018-11-05T14:47:29.208Z,60449.71
2018-11-05T14:50:08.359Z,60448.70
2018-11-05T14:52:47.251Z,60435.48
2018-11-05T14:55:26.804Z,60426.34
2018-11-05T14:57:54.996Z,60459.87
2018-11-05T15:00:25.110Z,60452.76
2018-11-05T15:02:53.648Z,60443.61
2018-11-05T15:08:00.993Z,60448.70
2018-11-05T15:10:29.168Z,60426.34
2018-11-05T15:12:57.340Z,60442.60
2018-11-05T15:15:25.516Z,60444.63
2018-11-05T15:17:53.669Z,60449.71
2018-11-05T15:20:22.786Z,60438.53
2018-11-05T15:22:51.054Z,60457.84
2018-11-05T15:25:19.847Z,60422.27
2018-11-05T15:27:48.033Z,60456.82
2018-11-05T15:30:18.547Z,60444.63
2018-11-05T15:32:46.902Z,60427.36
2018-11-05T15:35:15.190Z,60461.91
2018-11-05T15:37:43.786Z,60442.60
2018-11-05T15:40:16.637Z,60431.42
2018-11-05T15:42:44.930Z,60427.36
2018-11-05T15:45:14.620Z,60442.60
2018-11-05T15:47:43.258Z,60450.73
2018-11-05T15:50:13.202Z,60426.34
2018-11-05T15:52:41.983Z,60440.57
2018-11-05T15:55:10.345Z,60429.39
2018-11-05T15:57:39.295Z,60446.66
2018-11-05T16:00:17.271Z,60428.37
2018-11-05T16:02:47.214Z,60438.53
2018-11-05T16:05:16.290Z,60458.86
2018-11-05T16:07:44.714Z,60452.76
2018-11-05T16:10:12.955Z,60409.07
2018-11-05T16:12:41.203Z,60442.60
2018-11-05T16:15:10.066Z,60453.78
2018-11-05T16:17:38.643Z,60443.61
2018-11-05T16:20:08.770Z,60450.73
2018-11-05T16:22:36.947Z,60445.65
2018-11-05T16:25:05.287Z,60440.57
2018-11-05T16:27:33.472Z,60436.50
2018-11-05T16:30:01.665Z,60444.63
2018-11-05T16:32:29.840Z,60472.07
2018-11-05T16:34:58.679Z,60433.45
2018-11-05T16:37:27.003Z,60444.63
2018-11-05T16:39:55.257Z,60452.76
2018-11-05T16:42:23.366Z,60468.00
2018-11-05T16:44:51.563Z,60431.42
2018-11-05T16:47:19.747Z,60457.84
2018-11-05T16:49:47.940Z,60450.73
2018-11-05T16:52:16.129Z,60440.57
2018-11-05T16:54:44.352Z,60475.12
2018-11-05T16:57:12.538Z,60454.79
2018-11-05T16:59:40.708Z,60457.84
2018-11-05T17:02:14.404Z,60477.15
2018-11-05T17:04:43.158Z,60442.60
2018-11-05T17:07:11.335Z,60459.87
2018-11-05T17:09:39.619Z,60463.94
2018-11-05T17:12:07.823Z,60439.55
2018-11-05T17:14:35.990Z,60450.73
2018-11-05T17:17:04.175Z,60460.89
2018-11-05T17:19:32.827Z,60468.00
2018-11-05T17:22:00.987Z,60453.78
2018-11-05T17:24:29.688Z,60470.04
2018-11-05T17:26:57.903Z,60448.70
2018-11-05T17:29:26.246Z,60448.70
2018-11-05T17:31:54.416Z,60463.94
2018-11-05T17:34:22.887Z,60449.71
2018-11-05T17:36:51.382Z,60481.21
2018-11-05T17:39:19.565Z,60447.68
2018-11-05T17:41:47.731Z,60473.09
2018-11-05T17:44:15.886Z,60487.31
2018-11-05T17:46:44.060Z,60453.78
2018-11-05T17:49:13.068Z,60465.97
2018-11-05T17:51:41.669Z,60459.87
2018-11-05T17:54:10.028Z,60470.04
2018-11-05T17:56:38.203Z,60462.92
2018-11-05T17:59:06.753Z,60451.75
2018-11-05T18:01:34.968Z,60445.65
2018-11-05T18:04:03.177Z,60464.96
2018-11-05T18:06:31.825Z,60439.55
2018-11-05T18:09:00.032Z,60464.96
2018-11-05T18:11:28.179Z,60462.92
2018-11-05T18:13:56.358Z,60457.84
2018-11-05T18:16:24.547Z,60480.20
2018-11-05T18:18:52.805Z,60458.86
2018-11-05T18:21:20.933Z,60451.75
2018-11-05T18:23:49.109Z,60459.87
2018-11-05T18:26:17.478Z,60463.94
2018-11-05T18:28:45.687Z,60481.21
2018-11-05T18:31:13.961Z,60484.26
2018-11-05T18:33:42.571Z,60483.25
2018-11-05T18:36:10.729Z,60480.20
2018-11-05T18:38:38.912Z,60475.12
2018-11-05T18:41:07.096Z,60478.16
2018-11-05T18:43:35.296Z,60474.10
2018-11-05T18:46:09.847Z,60472.07
2018-11-05T18:48:38.015Z,60443.61
2018-11-05T18:51:06.222Z,60464.96
2018-11-05T18:53:34.433Z,60452.76
2018-11-05T18:56:02.591Z,60481.21
2018-11-05T18:58:30.896Z,60477.15
2018-11-05T19:00:59.159Z,60481.21
2018-11-05T19:03:27.795Z,60468.00
2018-11-05T19:05:55.944Z,60465.97
2018-11-05T19:08:24.229Z,60490.36
2018-11-05T19:10:52.570Z,60475.12
2018-11-05T19:13:20.864Z,60486.29
2018-11-05T19:15:49.099Z,60484.26
2018-11-05T19:18:17.307Z,60480.20
2018-11-05T19:20:45.763Z,60470.04
2018-11-05T19:23:14.155Z,60480.20
2018-11-05T19:25:42.376Z,60480.20
2018-11-05T19:28:10.644Z,60458.86
2018-11-05T19:30:38.994Z,60489.34
2018-11-05T19:33:07.517Z,60473.09
2018-11-05T19:35:35.772Z,60465.97
2018-11-05T19:38:04.391Z,60476.13
2018-11-05T19:40:32.972Z,60472.07
2018-11-05T19:43:01.206Z,60477.15
2018-11-05T19:45:30.333Z,60489.34
2018-11-05T19:47:58.723Z,60459.87
2018-11-05T19:50:26.986Z,60477.15
2018-11-05T19:52:55.345Z,60497.47
2018-11-05T19:55:23.809Z,60482.23
2018-11-05T19:57:52.888Z,60488.33
2018-11-05T20:00:27.360Z,60484.26
2018-11-05T20:02:56.223Z,60485.28
2018-11-05T20:05:24.571Z,60470.04
2018-11-05T20:07:53.602Z,60454.79
2018-11-05T20:10:22.051Z,60508.65
2018-11-05T20:12:50.571Z,60476.13
2018-11-05T20:15:19.383Z,60450.73
2018-11-05T20:17:48.705Z,60453.78
2018-11-05T20:20:19.463Z,60475.12
2018-11-05T20:22:47.817Z,60481.21
2018-11-05T20:25:16.084Z,60477.15
2018-11-05T20:27:44.545Z,60478.16
2018-11-05T20:30:15.667Z,60472.07
2018-11-05T20:32:45.047Z,60481.21
2018-11-05T20:35:13.052Z,60485.28
2018-11-05T20:37:41.267Z,60482.23
2018-11-05T20:40:12.345Z,60494.43
2018-11-05T20:42:40.954Z,60493.41
2018-11-05T20:45:09.183Z,60492.39
2018-11-05T20:47:37.542Z,60505.60
2018-11-05T20:50:06.502Z,60473.09
2018-11-05T20:52:34.775Z,60484.26
2018-11-05T20:55:03.005Z,60472.07
2018-11-05T20:57:31.286Z,60472.07
2018-11-05T20:59:59.561Z,60509.67
2018-11-05T21:02:27.789Z,60473.09
2018-11-05T21:04:56.070Z,60475.12
2018-11-05T21:07:24.355Z,60488.33
2018-11-05T21:09:52.599Z,60472.07
2018-11-05T21:12:21.048Z,60485.28
2018-11-05T21:14:49.387Z,60499.50
2018-11-05T21:17:17.659Z,60491.38
2018-11-05T21:19:45.872Z,60469.02
2018-11-05T21:22:14.190Z,60480.20
2018-11-05T21:24:42.326Z,60479.18
2018-11-05T21:27:10.537Z,60510.68
2018-11-05T21:29:38.755Z,60471.05
2018-11-05T21:32:06.951Z,60493.41
2018-11-05T21:34:35.121Z,60463.94
2018-11-05T21:37:03.315Z,60492.39
2018-11-05T21:39:31.491Z,60499.50
2018-11-05T21:41:59.688Z,60496.46
2018-11-05T21:44:27.910Z,60487.31
2018-11-05T21:46:56.084Z,60486.29
2018-11-05T21:49:24.270Z,60498.49
2018-11-05T21:51:52.471Z,60504.59
2018-11-05T21:54:20.690Z,60497.47
2018-11-05T21:56:48.819Z,60485.28
2018-11-05T21:59:17.003Z,60484.26
2018-11-05T22:01:45.168Z,60477.15
2018-11-05T22:04:13.743Z,60487.31
2018-11-05T22:06:41.920Z,60489.34
2018-11-05T22:09:10.177Z,60484.26
2018-11-05T22:11:38.343Z,60458.86
2018-11-05T22:14:06.538Z,60490.36
2018-11-05T22:16:34.706Z,60488.33
2018-11-05T22:19:02.883Z,60479.18
2018-11-05T22:21:31.060Z,60494.43
2018-11-05T22:23:59.232Z,60466.99
2018-11-05T22:26:27.412Z,60460.89
2018-11-05T22:28:55.571Z,60470.04
2018-11-05T22:31:23.734Z,60481.21
2018-11-05T22:33:51.878Z,60483.25
2018-11-05T22:36:20.050Z,60456.82
2018-11-05T22:38:48.199Z,60444.63
2018-11-05T22:41:16.381Z,60495.44
2018-11-05T22:43:44.542Z,60498.49
2018-11-05T22:46:12.698Z,60500.52
2018-11-05T22:48:40.864Z,60485.28
2018-11-05T22:51:09.035Z,60492.39
2018-11-05T22:53:37.198Z,60486.29
2018-11-05T22:56:06.046Z,60500.52
2018-11-05T22:58:34.222Z,60488.33
2018-11-05T23:01:02.848Z,60519.83
2018-11-05T23:03:31.542Z,60494.43
2018-11-05T23:06:00.106Z,60509.67
2018-11-05T23:08:28.311Z,60504.59
2018-11-05T23:10:56.667Z,60458.86
2018-11-05T23:13:24.824Z,60524.91
2018-11-05T23:15:52.984Z,60497.47
2018-11-05T23:18:21.160Z,60494.43
2018-11-05T23:20:49.334Z,60502.55
2018-11-05T23:23:17.516Z,60494.43
2018-11-05T23:25:45.674Z,60502.55
2018-11-05T23:28:13.848Z,60471.05
2018-11-05T23:30:42.029Z,60498.49
2018-11-05T23:33:10.225Z,60491.38
2018-11-05T23:35:38.352Z,60506.62
2018-11-05T23:38:06.714Z,60514.75
2018-11-05T23:40:34.916Z,60489.34
2018-11-05T23:43:03.087Z,60502.55
2018-11-05T23:45:31.244Z,60476.13
2018-11-05T23:47:59.415Z,60498.49
2018-11-05T23:50:27.579Z,60507.64
2018-11-05T23:52:55.746Z,60523.89
2018-11-05T23:55:23.914Z,60501.54
2018-11-05T23:57:52.084Z,60487.31
